Time;durP1;ratioP1;P1;durP2;ratioP2;P2;SDS_P1;SDS_P2;PMS_P1;PMS_P2;Temp;Humidity;BMP_temperature;BMP_pressure;BME280_temperature;BME280_humidity;BME280_pressure;Samples;Min_cycle;Max_cycle;Signal;HPM_P1;HPM_P2
2023/09/17 00:02:21;;;;;;;45.15;32.20;;;21.90;99.90;;;;;;5077768;28;20032;-75
2023/09/17 00:04:47;;;;;;;41.03;31.05;;;21.80;99.90;;;;;;5081829;28;20027;-74
2023/09/17 00:07:13;;;;;;;47.20;33.55;;;21.70;99.90;;;;;;5078072;28;20039;-73
2023/09/17 00:09:38;;;;;;;43.33;33.10;;;21.80;99.90;;;;;;5073788;28;20030;-74
2023/09/17 00:12:04;;;;;;;48.25;36.63;;;21.80;99.90;;;;;;5076741;28;20032;-74
2023/09/17 00:14:30;;;;;;;40.90;32.10;;;21.80;99.90;;;;;;5065725;28;20092;-75
2023/09/17 00:16:57;;;;;;;38.65;32.30;;;21.90;99.90;;;;;;5076861;28;20446;-74
2023/09/17 00:19:23;;;;;;;42.85;32.10;;;22.00;99.90;;;;;;5068171;28;20025;-74
2023/09/17 00:21:49;;;;;;;47.88;34.75;;;22.00;99.90;;;;;;5081919;28;20039;-73
2023/09/17 00:24:15;;;;;;;42.72;32.83;;;21.90;99.90;;;;;;5081938;28;20023;-74
2023/09/17 00:26:40;;;;;;;43.78;34.47;;;21.80;99.90;;;;;;5077550;28;20036;-75
2023/09/17 00:29:06;;;;;;;49.05;34.97;;;21.90;99.90;;;;;;5072712;28;20017;-74
2023/09/17 00:31:32;;;;;;;47.80;36.67;;;21.90;99.90;;;;;;5079626;28;20385;-74
2023/09/17 00:33:57;;;;;;;44.33;35.75;;;21.90;99.90;;;;;;5068210;28;20032;-74
2023/09/17 00:36:23;;;;;;;46.38;37.50;;;21.90;99.90;;;;;;5078007;28;20032;-73
2023/09/17 00:38:49;;;;;;;47.67;36.90;;;21.90;99.90;;;;;;5075808;28;20056;-74
2023/09/17 00:41:15;;;;;;;49.35;36.58;;;21.90;99.90;;;;;;5081172;28;20467;-74
2023/09/17 00:43:41;;;;;;;41.17;33.03;;;21.80;99.90;;;;;;5072318;28;20075;-74
2023/09/17 00:46:07;;;;;;;48.17;35.08;;;21.90;99.90;;;;;;5074297;28;20493;-74
2023/09/17 00:48:33;;;;;;;42.65;34.35;;;21.80;99.90;;;;;;5075541;28;20029;-75
2023/09/17 00:50:59;;;;;;;46.53;36.40;;;21.70;99.90;;;;;;5070695;28;20055;-74
2023/09/17 00:53:26;;;;;;;55.15;37.78;;;21.70;99.90;;;;;;5081436;28;20027;-75
2023/09/17 00:55:52;;;;;;;46.35;36.80;;;21.60;99.90;;;;;;5077525;28;20143;-74
2023/09/17 00:58:18;;;;;;;46.65;34.90;;;21.70;99.90;;;;;;5078875;28;20016;-75
2023/09/17 01:00:43;;;;;;;46.85;35.90;;;21.60;99.90;;;;;;5082682;28;20044;-75
2023/09/17 01:03:12;;;;;;;45.50;34.25;;;21.60;99.90;;;;;;5070281;28;20138;-75
2023/09/17 01:05:42;;;;;;;41.72;34.60;;;21.50;99.90;;;;;;5076386;28;20028;-74
2023/09/17 01:08:09;;;;;;;45.60;33.05;;;21.50;99.90;;;;;;5076574;28;20536;-75
2023/09/17 01:10:35;;;;;;;43.05;33.05;;;21.50;99.90;;;;;;5077065;28;20024;-74
2023/09/17 01:13:04;;;;;;;42.67;33.20;;;21.50;99.90;;;;;;5078908;28;20048;-74
2023/09/17 01:15:30;;;;;;;46.15;35.05;;;21.50;99.90;;;;;;5081584;28;20028;-75
2023/09/17 01:17:57;;;;;;;45.33;33.38;;;21.40;99.90;;;;;;5072094;28;20504;-75
2023/09/17 01:20:28;;;;;;;50.67;34.78;;;21.40;99.90;;;;;;5078216;28;20044;-75
2023/09/17 01:22:59;;;;;;;41.88;32.80;;;21.30;99.90;;;;;;5076113;28;20021;-74
2023/09/17 01:25:56;;;;;;;41.92;32.90;;;21.20;99.90;;;;;;5069545;28;20103;-75
2023/09/17 01:28:22;;;;;;;46.90;35.30;;;21.20;99.90;;;;;;5079402;28;20161;-74
2023/09/17 01:30:49;;;;;;;42.28;32.20;;;21.20;99.90;;;;;;5074217;28;20118;-73
2023/09/17 01:33:14;;;;;;;40.80;32.78;;;21.20;99.90;;;;;;5069874;28;20028;-74
2023/09/17 01:35:46;;;;;;;46.95;35.35;;;21.20;99.90;;;;;;5080596;28;20028;-75
2023/09/17 01:38:15;;;;;;;44.42;34.83;;;21.00;99.90;;;;;;5081963;28;20035;-75
2023/09/17 01:40:43;;;;;;;54.67;36.58;;;20.90;99.90;;;;;;5072814;28;20408;-75
2023/09/17 01:43:08;;;;;;;53.08;38.33;;;21.00;99.90;;;;;;5074688;28;20094;-74
2023/09/17 01:45:35;;;;;;;55.35;37.70;;;20.90;99.90;;;;;;5072351;28;20036;-74
2023/09/17 01:48:01;;;;;;;47.03;34.55;;;20.90;99.90;;;;;;5073585;28;20378;-74
2023/09/17 01:50:28;;;;;;;49.72;32.85;;;21.00;99.90;;;;;;5075870;28;20044;-73
2023/09/17 01:52:55;;;;;;;46.92;34.80;;;21.00;99.90;;;;;;5079535;28;20031;-74
2023/09/17 01:55:22;;;;;;;52.42;35.10;;;21.00;99.90;;;;;;5079190;28;20381;-73
2023/09/17 01:57:48;;;;;;;49.63;35.67;;;20.90;99.90;;;;;;5070505;28;20512;-72
2023/09/17 02:00:16;;;;;;;45.85;32.97;;;20.90;99.90;;;;;;5077215;28;20044;-73
2023/09/17 02:02:47;;;;;;;44.58;33.45;;;20.90;99.90;;;;;;5077010;28;20029;-72
2023/09/17 02:05:16;;;;;;;40.30;32.03;;;20.90;99.90;;;;;;5072267;28;20038;-73
2023/09/17 02:07:42;;;;;;;39.97;31.02;;;21.00;99.90;;;;;;5078702;28;20021;-72
2023/09/17 02:10:10;;;;;;;40.55;30.17;;;21.00;99.90;;;;;;5069792;28;20051;-73
2023/09/17 02:12:36;;;;;;;48.92;34.03;;;21.10;99.90;;;;;;5083919;28;20020;-72
2023/09/17 02:15:03;;;;;;;47.45;31.88;;;21.10;99.90;;;;;;5068230;28;20024;-72
2023/09/17 02:17:29;;;;;;;40.08;30.90;;;21.10;99.90;;;;;;5074865;28;20020;-72
2023/09/17 02:19:55;;;;;;;40.92;32.78;;;21.10;99.90;;;;;;5065569;28;20381;-72
2023/09/17 02:22:20;;;;;;;47.53;32.45;;;21.00;99.90;;;;;;5070582;28;20032;-74
2023/09/17 02:24:46;;;;;;;43.20;32.83;;;21.10;99.90;;;;;;5079456;28;20566;-74
2023/09/17 02:27:13;;;;;;;48.00;33.85;;;21.10;99.90;;;;;;5069914;28;20111;-72
2023/09/17 02:29:40;;;;;;;38.83;31.60;;;21.10;99.90;;;;;;5081728;28;20016;-73
2023/09/17 02:32:06;;;;;;;41.35;30.35;;;21.00;99.90;;;;;;5071507;28;20075;-74
2023/09/17 02:34:31;;;;;;;36.35;29.15;;;20.90;99.90;;;;;;5073178;28;20081;-75
2023/09/17 02:36:57;;;;;;;38.45;30.83;;;20.70;99.90;;;;;;5079077;28;20025;-75
2023/09/17 02:39:23;;;;;;;44.85;32.40;;;20.80;99.90;;;;;;5071936;28;20473;-74
2023/09/17 02:41:49;;;;;;;37.80;29.70;;;20.80;99.90;;;;;;5079107;28;20047;-73
2023/09/17 02:44:14;;;;;;;36.70;30.15;;;20.80;99.90;;;;;;5076804;28;20017;-74
2023/09/17 02:46:40;;;;;;;38.65;30.48;;;20.70;99.90;;;;;;5067952;28;20032;-73
2023/09/17 02:49:06;;;;;;;35.63;28.58;;;20.50;99.90;;;;;;5083151;28;20035;-73
2023/09/17 02:51:32;;;;;;;38.85;28.83;;;20.60;99.90;;;;;;5072779;28;20476;-73
2023/09/17 02:53:58;;;;;;;35.80;29.60;;;20.70;99.90;;;;;;5068911;28;20028;-72
2023/09/17 02:56:25;;;;;;;33.50;27.33;;;20.70;99.90;;;;;;5078606;28;20035;-73
2023/09/17 02:58:50;;;;;;;39.83;31.10;;;20.70;99.90;;;;;;5082473;28;20023;-73
2023/09/17 03:01:23;;;;;;;34.85;30.05;;;20.60;99.90;;;;;;5065225;28;20536;-73
2023/09/17 03:03:48;;;;;;;;;;;20.70;99.90;;;;;;5080760;28;20020;-72
2023/09/17 03:06:15;;;;;;;38.03;31.08;;;20.80;99.90;;;;;;5085734;28;20002;-73
2023/09/17 03:08:42;;;;;;;43.25;31.40;;;20.70;99.90;;;;;;5066662;28;20024;-72
2023/09/17 03:11:13;;;;;;;35.97;30.23;;;20.60;99.90;;;;;;5073758;28;20544;-73
2023/09/17 03:13:42;;;;;;;37.88;29.65;;;20.60;99.90;;;;;;5070735;28;20111;-73
2023/09/17 03:16:09;;;;;;;38.10;31.00;;;20.60;99.90;;;;;;5075034;28;20027;-72
2023/09/17 03:18:35;;;;;;;39.03;30.15;;;20.70;99.90;;;;;;5068356;28;20048;-73
2023/09/17 03:21:07;;;;;;;40.58;33.70;;;20.60;99.90;;;;;;5072637;28;20067;-72
2023/09/17 03:23:33;;;;;;;42.22;31.92;;;20.50;99.90;;;;;;5072678;28;20063;-73
2023/09/17 03:26:03;;;;;;;40.92;35.50;;;20.50;99.90;;;;;;5074900;28;20032;-73
2023/09/17 03:28:32;;;;;;;89.88;38.17;;;20.50;99.90;;;;;;5081921;28;20017;-72
2023/09/17 03:30:59;;;;;;;40.35;33.72;;;20.50;99.90;;;;;;5058948;28;20507;-72
2023/09/17 03:33:25;;;;;;;54.58;35.95;;;20.50;99.90;;;;;;5073836;28;20028;-72
2023/09/17 03:35:51;;;;;;;45.92;33.05;;;20.60;99.90;;;;;;5085717;28;20098;-72
2023/09/17 03:38:17;;;;;;;36.03;31.33;;;20.60;99.90;;;;;;5074800;28;20074;-72
2023/09/17 03:40:43;;;;;;;50.35;36.95;;;20.60;99.90;;;;;;5085764;28;20040;-73
2023/09/17 03:43:09;;;;;;;41.72;34.22;;;20.60;99.90;;;;;;5066370;28;20024;-72
2023/09/17 03:45:35;;;;;;;41.35;35.63;;;20.50;99.90;;;;;;5070062;28;20028;-73
2023/09/17 03:48:01;;;;;;;42.05;34.55;;;20.50;99.90;;;;;;5079226;28;20032;-73
2023/09/17 03:50:30;;;;;;;38.72;31.85;;;20.60;99.90;;;;;;5073567;28;20050;-73
2023/09/17 03:52:58;;;;;;;38.88;33.28;;;20.70;99.90;;;;;;5071550;28;20025;-73
2023/09/17 03:55:24;;;;;;;43.95;35.08;;;20.70;99.90;;;;;;5062630;28;20056;-73
2023/09/17 03:57:50;;;;;;;39.63;35.17;;;20.80;99.90;;;;;;5060481;28;20021;-73
2023/09/17 04:00:17;;;;;;;45.88;36.75;;;20.80;99.90;;;;;;5068349;28;20070;-73
2023/09/17 04:02:45;;;;;;;44.65;36.38;;;20.80;99.90;;;;;;5076515;28;20039;-73
2023/09/17 04:05:13;;;;;;;47.88;37.92;;;20.80;99.90;;;;;;5067014;28;20029;-73
2023/09/17 04:07:41;;;;;;;53.53;40.20;;;20.90;99.90;;;;;;5073348;28;20401;-73
2023/09/17 04:10:08;;;;;;;43.55;35.40;;;20.80;99.90;;;;;;5067003;28;20036;-73
2023/09/17 04:12:35;;;;;;;44.67;34.50;;;20.70;99.90;;;;;;5080735;28;20496;-73
2023/09/17 04:15:02;;;;;;;40.05;35.13;;;20.70;99.90;;;;;;5081609;28;20020;-73
2023/09/17 04:17:28;;;;;;;43.40;35.83;;;20.80;99.90;;;;;;5072209;28;20033;-73
2023/09/17 04:19:55;;;;;;;41.88;35.97;;;20.80;99.90;;;;;;5075427;28;20020;-73
2023/09/17 04:22:20;;;;;;;43.45;35.83;;;20.80;99.90;;;;;;5069289;28;20074;-73
2023/09/17 04:24:48;;;;;;;53.03;39.83;;;20.90;99.90;;;;;;5070319;28;20397;-73
2023/09/17 04:27:15;;;;;;;44.38;37.53;;;20.90;99.90;;;;;;5061640;28;20461;-73
2023/09/17 04:29:41;;;;;;;48.28;39.25;;;20.90;99.90;;;;;;5070161;28;20103;-73
2023/09/17 04:32:06;;;;;;;46.30;37.63;;;20.90;99.90;;;;;;5067676;28;20580;-73
2023/09/17 04:34:32;;;;;;;48.45;37.33;;;20.90;99.90;;;;;;5079834;28;20488;-73
2023/09/17 04:36:58;;;;;;;43.80;37.08;;;20.90;99.90;;;;;;5082868;28;20031;-72
2023/09/17 04:39:27;;;;;;;50.35;38.33;;;20.90;99.90;;;;;;5068132;28;20579;-73
2023/09/17 04:41:53;;;;;;;47.35;37.10;;;20.80;99.90;;;;;;5075537;28;20080;-73
2023/09/17 04:44:19;;;;;;;55.53;41.50;;;20.70;99.90;;;;;;5073086;28;20044;-73
2023/09/17 04:46:45;;;;;;;57.65;41.50;;;20.80;99.90;;;;;;5077917;28;20059;-72
2023/09/17 04:49:11;;;;;;;51.83;39.65;;;20.60;99.90;;;;;;5078984;28;20214;-73
2023/09/17 04:51:37;;;;;;;47.85;38.88;;;20.50;99.90;;;;;;5078412;28;20156;-73
2023/09/17 04:54:03;;;;;;;57.75;42.38;;;20.60;99.90;;;;;;5083942;28;20059;-73
2023/09/17 04:56:30;;;;;;;60.30;45.67;;;20.70;99.90;;;;;;5075177;28;20048;-73
2023/09/17 04:58:58;;;;;;;51.92;40.55;;;20.70;99.90;;;;;;5069416;28;20025;-73
2023/09/17 05:01:23;;;;;;;54.90;39.20;;;20.70;99.90;;;;;;5082506;28;20024;-73
2023/09/17 05:03:49;;;;;;;51.97;39.95;;;20.70;99.90;;;;;;5073533;28;20032;-73
2023/09/17 05:06:15;;;;;;;51.42;40.20;;;20.70;99.90;;;;;;5072185;28;20095;-73
2023/09/17 05:08:41;;;;;;;52.40;39.40;;;20.70;99.90;;;;;;5079681;28;20036;-73
2023/09/17 05:11:06;;;;;;;50.92;38.70;;;20.60;99.90;;;;;;5071427;28;20032;-73
2023/09/17 05:13:32;;;;;;;43.75;37.25;;;20.70;99.90;;;;;;5079853;28;20702;-73
2023/09/17 05:15:58;;;;;;;51.38;38.25;;;20.70;99.90;;;;;;5074690;28;20028;-72
2023/09/17 05:18:24;;;;;;;49.58;39.17;;;20.80;99.90;;;;;;5080708;28;20447;-73
2023/09/17 05:20:53;;;;;;;52.55;41.67;;;20.80;99.90;;;;;;5070046;28;20035;-73
2023/09/17 05:23:20;;;;;;;57.30;42.13;;;20.80;99.90;;;;;;5079931;28;20583;-73
2023/09/17 05:25:45;;;;;;;60.33;42.92;;;20.80;99.90;;;;;;5067726;28;20027;-72
2023/09/17 05:28:11;;;;;;;108.85;49.83;;;20.70;99.90;;;;;;5077921;28;20112;-73
2023/09/17 05:30:37;;;;;;;63.67;45.75;;;20.60;99.90;;;;;;5076878;28;20024;-73
2023/09/17 05:33:04;;;;;;;65.60;44.60;;;20.40;99.90;;;;;;5071907;28;20043;-73
2023/09/17 05:35:34;;;;;;;72.85;46.97;;;20.40;99.90;;;;;;5076883;28;20123;-73
2023/09/17 05:38:00;;;;;;;54.75;41.42;;;20.50;99.90;;;;;;5075188;28;20485;-73
2023/09/17 05:40:27;;;;;;;83.65;47.20;;;20.50;99.90;;;;;;5082416;28;20385;-72
2023/09/17 05:42:52;;;;;;;57.28;41.90;;;20.50;99.90;;;;;;5073512;28;20089;-73
2023/09/17 05:45:18;;;;;;;68.85;44.75;;;20.40;99.90;;;;;;5072277;28;20426;-72
2023/09/17 05:47:44;;;;;;;55.60;42.25;;;20.50;99.90;;;;;;5078057;28;20089;-72
2023/09/17 05:50:10;;;;;;;54.60;38.88;;;20.50;99.90;;;;;;5076544;28;20020;-73
2023/09/17 05:52:36;;;;;;;61.58;41.15;;;20.50;99.90;;;;;;5076398;28;20047;-73
2023/09/17 05:55:05;;;;;;;56.78;40.17;;;20.60;99.90;;;;;;5076137;28;20032;-73
2023/09/17 05:57:31;;;;;;;87.13;49.20;;;20.70;99.90;;;;;;5079475;28;20031;-73
2023/09/17 05:59:57;;;;;;;60.30;41.08;;;20.70;99.90;;;;;;5061739;28;20484;-72
2023/09/17 06:02:23;;;;;;;61.17;44.75;;;20.70;99.90;;;;;;5075139;28;20043;-72
2023/09/17 06:04:53;;;;;;;87.25;50.63;;;20.80;99.90;;;;;;5069318;28;20389;-73
2023/09/17 06:07:19;;;;;;;74.28;47.70;;;20.70;99.90;;;;;;5076064;28;20047;-73
2023/09/17 06:09:45;;;;;;;52.95;40.20;;;20.60;99.90;;;;;;5074626;28;20032;-72
2023/09/17 06:12:12;;;;;;;62.33;42.60;;;20.60;99.90;;;;;;5074062;28;20380;-72
2023/09/17 06:14:37;;;;;;;62.53;42.78;;;20.70;99.90;;;;;;5073965;28;20037;-72
2023/09/17 06:17:03;;;;;;;62.60;43.58;;;20.70;99.90;;;;;;5079495;28;20028;-72
2023/09/17 06:19:29;;;;;;;59.47;41.85;;;20.60;99.90;;;;;;5081715;28;20035;-73
2023/09/17 06:21:55;;;;;;;58.08;43.33;;;20.60;99.90;;;;;;5069177;28;20032;-72
2023/09/17 06:24:20;;;;;;;58.92;44.17;;;20.70;99.90;;;;;;5081456;28;20392;-72
2023/09/17 06:26:46;;;;;;;60.47;42.97;;;20.80;99.90;;;;;;5074259;28;20037;-72
2023/09/17 06:29:12;;;;;;;55.85;42.10;;;20.80;99.90;;;;;;5079050;28;20028;-72
2023/09/17 06:31:38;;;;;;;67.28;43.63;;;20.90;99.90;;;;;;5068395;28;20469;-73
2023/09/17 06:34:04;;;;;;;69.90;45.28;;;20.90;99.90;;;;;;5082173;28;20043;-73
2023/09/17 06:36:30;;;;;;;62.30;45.20;;;20.80;99.90;;;;;;5072889;28;20469;-73
2023/09/17 06:38:55;;;;;;;59.15;41.53;;;20.90;99.90;;;;;;5068637;28;20362;-72
2023/09/17 06:41:21;;;;;;;76.78;45.30;;;20.80;99.90;;;;;;5078696;28;20086;-73
2023/09/17 06:43:47;;;;;;;70.25;44.75;;;20.70;99.90;;;;;;5066544;28;20024;-72
2023/09/17 06:46:13;;;;;;;82.03;48.63;;;20.70;99.90;;;;;;5079996;28;20051;-72
2023/09/17 06:48:38;;;;;;;75.75;46.03;;;20.70;99.90;;;;;;5076033;28;20393;-72
2023/09/17 06:51:04;;;;;;;91.57;50.22;;;20.80;99.90;;;;;;5069818;28;20025;-72
2023/09/17 06:53:30;;;;;;;61.83;43.13;;;20.80;99.90;;;;;;5075138;28;20028;-72
2023/09/17 06:55:58;;;;;;;66.63;44.10;;;20.80;99.90;;;;;;5073078;28;20538;-72
2023/09/17 06:58:24;;;;;;;60.00;41.40;;;20.80;99.90;;;;;;5074461;28;20028;-72
2023/09/17 07:00:49;;;;;;;65.72;43.90;;;20.90;99.90;;;;;;5077111;28;20439;-72
2023/09/17 07:03:15;;;;;;;55.22;39.13;;;21.00;99.90;;;;;;5063567;28;20036;-72
2023/09/17 07:05:41;;;;;;;71.00;42.85;;;21.00;99.90;;;;;;5071400;28;20502;-72
2023/09/17 07:08:07;;;;;;;79.47;48.78;;;21.00;99.90;;;;;;5065450;28;20036;-72
2023/09/17 07:10:33;;;;;;;104.85;51.92;;;21.00;99.90;;;;;;5077666;28;20021;-71
2023/09/17 07:12:59;;;;;;;97.68;50.10;;;21.00;99.90;;;;;;5065618;28;20023;-71
2023/09/17 07:15:25;;;;;;;113.45;47.88;;;21.00;99.90;;;;;;5064033;28;20021;-71
2023/09/17 07:17:52;;;;;;;120.65;55.00;;;21.00;99.90;;;;;;5074658;28;20023;-71
2023/09/17 07:20:19;;;;;;;96.95;51.30;;;21.00;99.90;;;;;;5077102;28;20370;-71
2023/09/17 07:22:46;;;;;;;103.47;53.33;;;21.00;99.90;;;;;;5069632;28;20033;-72
2023/09/17 07:25:12;;;;;;;110.55;55.83;;;21.10;99.90;;;;;;5071901;28;20477;-72
2023/09/17 07:27:39;;;;;;;90.80;55.78;;;21.00;99.90;;;;;;5073753;28;20029;-71
2023/09/17 07:30:05;;;;;;;122.40;56.70;;;21.10;99.90;;;;;;5074942;28;20095;-71
2023/09/17 07:32:31;;;;;;;88.72;53.33;;;21.00;99.90;;;;;;5073198;28;20120;-72
2023/09/17 07:34:57;;;;;;;86.95;50.15;;;21.00;99.90;;;;;;5076575;28;20054;-71
2023/09/17 07:37:23;;;;;;;83.93;50.10;;;21.00;99.90;;;;;;5067355;28;20485;-72
2023/09/17 07:39:57;;;;;;;75.50;49.00;;;21.10;99.90;;;;;;5072220;28;20155;-71
2023/09/17 07:42:23;;;;;;;72.65;47.80;;;21.10;99.90;;;;;;5076862;28;20097;-72
2023/09/17 07:44:49;;;;;;;86.40;51.78;;;21.20;99.90;;;;;;5076552;28;20473;-72
2023/09/17 07:47:15;;;;;;;86.18;51.42;;;21.30;99.90;;;;;;5083633;28;20472;-72
2023/09/17 07:49:40;;;;;;;72.43;47.90;;;21.30;99.90;;;;;;5069654;28;20021;-72
2023/09/17 07:52:06;;;;;;;134.52;54.40;;;21.30;99.90;;;;;;5065319;28;20051;-71
2023/09/17 07:54:39;;;;;;;98.05;50.97;;;21.20;99.90;;;;;;5079329;28;20081;-71
2023/09/17 07:57:08;;;;;;;84.95;49.50;;;21.20;99.90;;;;;;5067488;28;20021;-71
2023/09/17 07:59:33;;;;;;;83.68;50.75;;;21.30;99.90;;;;;;5077703;28;20024;-71
2023/09/17 08:01:59;;;;;;;90.70;51.67;;;21.40;99.90;;;;;;5079616;28;20033;-71
2023/09/17 08:04:25;;;;;;;74.10;47.65;;;21.50;99.90;;;;;;5068264;28;20151;-71
2023/09/17 08:06:51;;;;;;;101.78;54.22;;;21.40;99.90;;;;;;5069279;28;20028;-71
2023/09/17 08:09:17;;;;;;;94.95;54.78;;;21.40;99.90;;;;;;5081691;28;20032;-71
2023/09/17 08:11:43;;;;;;;94.22;53.60;;;21.30;99.90;;;;;;5068822;28;20066;-71
2023/09/17 08:14:10;;;;;;;82.72;48.88;;;21.40;99.90;;;;;;5070342;28;20020;-71
2023/09/17 08:16:36;;;;;;;62.58;42.72;;;21.40;99.90;;;;;;5071719;28;20393;-71
2023/09/17 08:19:02;;;;;;;65.30;43.75;;;21.40;99.90;;;;;;5074247;28;20133;-71
2023/09/17 08:21:29;;;;;;;72.20;44.58;;;21.40;99.90;;;;;;5073857;28;20040;-71
2023/09/17 08:23:55;;;;;;;59.13;38.72;;;21.40;99.90;;;;;;5077297;28;20025;-71
2023/09/17 08:26:22;;;;;;;62.03;40.05;;;21.30;99.90;;;;;;5083529;28;20111;-71
2023/09/17 08:28:49;;;;;;;53.40;35.58;;;21.30;99.90;;;;;;5074914;28;20035;-71
2023/09/17 08:31:16;;;;;;;54.72;36.35;;;21.40;99.90;;;;;;5074163;28;20024;-71
2023/09/17 08:33:45;;;;;;;58.17;39.15;;;21.30;99.90;;;;;;5078387;28;20040;-71
2023/09/17 08:36:11;;;;;;;57.40;39.17;;;21.30;99.90;;;;;;5072653;28;20113;-71
2023/09/17 08:38:37;;;;;;;51.58;35.03;;;21.30;99.90;;;;;;5078407;28;20360;-71
2023/09/17 08:41:06;;;;;;;49.03;33.83;;;21.30;99.90;;;;;;5086079;28;20058;-71
2023/09/17 08:43:33;;;;;;;47.05;31.92;;;21.40;99.90;;;;;;5069495;28;20040;-72
2023/09/17 08:46:01;;;;;;;42.15;27.80;;;21.40;99.90;;;;;;5076978;28;20029;-71
2023/09/17 08:48:26;;;;;;;37.10;26.92;;;21.40;99.90;;;;;;5075857;28;20032;-71
2023/09/17 08:50:54;;;;;;;33.45;26.25;;;21.40;99.90;;;;;;5068385;28;20038;-72
2023/09/17 08:53:27;;;;;;;35.95;26.85;;;21.40;99.90;;;;;;5083219;28;20025;-71
2023/09/17 08:55:57;;;;;;;33.00;24.55;;;21.50;99.90;;;;;;5072720;28;20029;-72
2023/09/17 08:58:28;;;;;;;36.22;27.08;;;21.50;99.90;;;;;;5079737;28;20028;-71
2023/09/17 09:00:59;;;;;;;34.95;25.75;;;21.60;99.90;;;;;;5072540;28;20891;-72
2023/09/17 09:03:26;;;;;;;33.05;23.67;;;21.60;99.90;;;;;;5073268;28;20096;-71
2023/09/17 09:05:55;;;;;;;36.53;25.83;;;21.70;99.90;;;;;;5081131;28;20024;-71
2023/09/17 09:08:22;;;;;;;33.10;24.23;;;21.60;99.90;;;;;;5068710;28;20033;-72
2023/09/17 09:10:50;;;;;;;33.47;25.73;;;21.70;99.90;;;;;;5078438;28;20048;-72
2023/09/17 09:13:17;;;;;;;33.35;24.30;;;21.70;99.90;;;;;;5074627;28;20028;-72
2023/09/17 09:15:43;;;;;;;28.17;21.73;;;21.80;99.90;;;;;;5075288;28;20021;-72
2023/09/17 09:18:09;;;;;;;33.25;22.98;;;21.90;99.90;;;;;;5081247;28;20024;-72
2023/09/17 09:20:37;;;;;;;30.90;21.88;;;21.90;99.90;;;;;;5072970;28;20024;-72
2023/09/17 09:23:05;;;;;;;29.42;21.55;;;21.90;99.90;;;;;;5078696;28;20036;-73
2023/09/17 09:25:31;;;;;;;31.48;21.95;;;21.90;99.90;;;;;;5075179;28;20075;-73
2023/09/17 09:28:04;;;;;;;25.15;19.02;;;21.90;99.90;;;;;;5075934;28;20530;-72
2023/09/17 09:30:29;;;;;;;24.52;18.10;;;21.80;99.90;;;;;;5076268;28;21690;-73
2023/09/17 09:32:56;;;;;;;23.20;18.48;;;21.80;99.90;;;;;;5071825;28;20499;-73
2023/09/17 09:35:23;;;;;;;30.08;20.83;;;21.90;99.90;;;;;;5077076;28;20462;-73
2023/09/17 09:37:50;;;;;;;21.38;18.10;;;21.90;99.90;;;;;;5072996;28;20079;-73
2023/09/17 09:40:17;;;;;;;23.17;19.15;;;21.90;99.90;;;;;;5080456;28;20032;-73
2023/09/17 09:42:43;;;;;;;24.95;18.42;;;21.90;99.90;;;;;;5070235;28;20025;-72
2023/09/17 09:45:18;;;;;;;20.67;17.05;;;22.00;99.90;;;;;;5080710;28;20051;-72
2023/09/17 09:47:50;;;;;;;21.73;14.80;;;22.10;99.90;;;;;;5066214;28;20915;-72
2023/09/17 09:50:24;;;;;;;20.08;16.35;;;22.10;99.90;;;;;;5067657;28;20021;-73
2023/09/17 09:52:50;;;;;;;18.42;16.25;;;22.10;99.90;;;;;;5074559;28;20096;-72
2023/09/17 09:55:15;;;;;;;20.60;16.85;;;22.20;99.90;;;;;;5069308;28;20474;-73
2023/09/17 09:57:46;;;;;;;17.58;15.35;;;22.20;99.90;;;;;;5080751;28;20036;-73
2023/09/17 10:00:13;;;;;;;17.73;15.13;;;22.20;99.90;;;;;;5078314;28;20054;-73
2023/09/17 10:02:40;;;;;;;21.33;15.63;;;22.20;99.90;;;;;;5074297;28;20097;-73
2023/09/17 10:05:07;;;;;;;18.95;15.95;;;22.30;99.90;;;;;;5072773;28;20527;-73
2023/09/17 10:07:33;;;;;;;16.50;14.48;;;22.30;99.90;;;;;;5074068;28;20024;-74
2023/09/17 10:10:00;;;;;;;16.65;13.13;;;22.30;99.90;;;;;;5075646;28;20138;-74
2023/09/17 10:12:27;;;;;;;21.88;14.55;;;22.20;99.90;;;;;;5071639;28;20023;-74
2023/09/17 10:14:53;;;;;;;16.25;13.30;;;22.20;99.90;;;;;;5080652;28;20024;-74
2023/09/17 10:17:19;;;;;;;16.23;13.10;;;22.20;99.90;;;;;;5078362;28;20070;-73
2023/09/17 10:19:47;;;;;;;17.23;13.93;;;22.30;99.90;;;;;;5074622;28;20024;-74
2023/09/17 10:22:15;;;;;;;13.32;11.93;;;22.20;99.90;;;;;;5084498;28;20508;-74
2023/09/17 10:24:42;;;;;;;19.00;12.95;;;22.20;99.90;;;;;;5070999;28;20028;-74
2023/09/17 10:27:08;;;;;;;18.08;12.30;;;22.20;99.90;;;;;;5070143;28;20039;-74
2023/09/17 10:29:35;;;;;;;15.98;11.15;;;22.40;99.90;;;;;;5079545;28;20530;-74
2023/09/17 10:32:04;;;;;;;13.52;10.45;;;22.40;99.90;;;;;;5086025;28;20023;-74
2023/09/17 10:34:35;;;;;;;13.40;11.82;;;22.70;99.90;;;;;;5073612;28;20086;-74
2023/09/17 10:37:04;;;;;;;13.50;10.90;;;22.70;99.90;;;;;;5066858;28;20031;-73
2023/09/17 10:39:32;;;;;;;13.38;11.38;;;22.70;99.90;;;;;;5071783;28;20036;-74
2023/09/17 10:42:01;;;;;;;11.15;9.43;;;22.80;99.90;;;;;;5071816;28;20262;-74
2023/09/17 10:44:29;;;;;;;14.48;10.05;;;23.10;99.90;;;;;;5082257;28;20370;-73
2023/09/17 10:46:59;;;;;;;12.77;10.27;;;23.20;99.90;;;;;;5077692;28;20023;-73
2023/09/17 10:49:26;;;;;;;14.63;11.27;;;23.30;99.90;;;;;;5068800;28;20561;-74
2023/09/17 10:51:53;;;;;;;11.82;10.52;;;23.30;99.90;;;;;;5079533;28;20123;-74
2023/09/17 10:54:19;;;;;;;13.93;10.63;;;23.30;99.90;;;;;;5075799;28;20045;-75
2023/09/17 10:56:45;;;;;;;12.95;10.13;;;23.40;99.90;;;;;;5068155;28;20060;-74
2023/09/17 10:59:14;;;;;;;10.60;9.55;;;23.30;99.90;;;;;;5068725;28;20020;-73
2023/09/17 11:01:42;;;;;;;13.73;8.77;;;23.20;99.90;;;;;;5073953;28;20033;-74
2023/09/17 11:04:13;;;;;;;12.10;9.65;;;23.30;99.90;;;;;;5064701;28;20452;-74
2023/09/17 11:06:41;;;;;;;11.90;9.02;;;23.40;99.90;;;;;;5071378;28;20074;-74
2023/09/17 11:09:07;;;;;;;11.32;8.98;;;23.30;99.90;;;;;;5073434;28;20069;-73
2023/09/17 11:11:37;;;;;;;14.00;10.18;;;23.20;99.90;;;;;;5068577;28;20057;-73
2023/09/17 11:14:04;;;;;;;11.98;9.27;;;23.30;99.90;;;;;;5071398;28;20489;-72
2023/09/17 11:16:32;;;;;;;10.57;9.30;;;23.10;99.90;;;;;;5069381;28;20025;-72
2023/09/17 11:19:06;;;;;;;10.80;9.70;;;23.30;99.90;;;;;;5070347;28;20106;-75
2023/09/17 11:21:41;;;;;;;14.73;9.18;;;23.30;99.90;;;;;;5080945;28;20116;-75
2023/09/17 11:24:12;;;;;;;9.43;8.05;;;23.30;99.90;;;;;;5067750;28;20472;-74
2023/09/17 11:26:40;;;;;;;13.25;8.13;;;22.90;99.90;;;;;;5074601;28;20092;-74
2023/09/17 11:29:07;;;;;;;8.55;7.47;;;23.00;99.90;;;;;;5083999;28;20031;-73
2023/09/17 11:31:59;;;;;;;10.90;8.13;;;23.20;99.90;;;;;;5067056;28;20048;-73
2023/09/17 11:34:25;;;;;;;9.75;8.13;;;23.50;99.90;;;;;;5070715;28;20055;-73
2023/09/17 11:36:52;;;;;;;8.80;7.95;;;23.80;99.90;;;;;;5066596;28;20056;-74
2023/09/17 11:39:21;;;;;;;8.07;7.28;;;23.80;99.90;;;;;;5070061;28;20478;-73
2023/09/17 11:41:52;;;;;;;11.40;8.35;;;23.90;99.90;;;;;;5065253;28;20082;-74
2023/09/17 11:44:20;;;;;;;10.93;8.77;;;23.90;99.90;;;;;;5071458;28;20462;-73
2023/09/17 11:46:46;;;;;;;9.75;8.20;;;24.00;99.90;;;;;;5071088;28;20031;-73
2023/09/17 11:49:13;;;;;;;8.82;7.63;;;24.10;99.90;;;;;;5068470;28;20021;-73
2023/09/17 11:51:48;;;;;;;9.18;7.63;;;24.30;99.90;;;;;;5075217;28;20119;-75
2023/09/17 11:54:18;;;;;;;8.38;6.40;;;24.40;99.90;;;;;;5068723;28;20481;-74
2023/09/17 11:56:55;;;;;;;8.27;6.65;;;24.50;99.90;;;;;;5068702;28;20373;-75
2023/09/17 11:59:22;;;;;;;9.70;6.13;;;24.60;99.90;;;;;;5074501;28;20024;-75
2023/09/17 12:01:49;;;;;;;6.95;6.00;;;24.80;99.90;;;;;;5081060;28;20044;-75
2023/09/17 12:04:16;;;;;;;8.65;6.05;;;24.70;99.90;;;;;;5078118;28;20677;-74
2023/09/17 12:06:47;;;;;;;7.00;6.30;;;24.80;99.90;;;;;;5071252;28;20085;-74
2023/09/17 12:11:56;;;;;;;;;;;24.70;99.90;;;;;;5076750;28;20118;-74
2023/09/17 12:14:22;;;;;;;9.23;6.57;;;24.60;99.90;;;;;;5071717;28;19909;-75
2023/09/17 12:16:49;;;;;;;8.52;6.28;;;24.60;99.90;;;;;;5073914;28;20047;-75
2023/09/17 12:19:16;;;;;;;8.82;7.47;;;24.60;99.90;;;;;;5079546;28;20029;-74
2023/09/17 12:21:44;;;;;;;8.23;6.00;;;24.70;99.90;;;;;;5077379;28;20028;-74
2023/09/17 12:24:23;;;;;;;7.18;6.47;;;24.80;99.90;;;;;;5074862;28;20024;-74
2023/09/17 12:27:09;;;;;;;9.65;6.10;;;24.70;99.90;;;;;;5075019;28;20056;-75
2023/09/17 12:29:36;;;;;;;8.85;6.40;;;24.90;99.90;;;;;;5067765;28;20052;-74
2023/09/17 12:32:07;;;;;;;8.27;7.07;;;25.10;99.90;;;;;;5077922;28;20071;-75